sensor_id;sensor_type;location;lat;lon;timestamp;pressure;altitude;pressure_sealevel;temperature;humidity
4705;BME280;2366;51.332;6.610;2023-02-11T00:01:42;103307.81;;;9.62;65.83
4705;BME280;2366;51.332;6.610;2023-02-11T00:04:07;103312.91;;;9.74;66.16
4705;BME280;2366;51.332;6.610;2023-02-11T00:06:34;103313.59;;;9.85;65.98
4705;BME280;2366;51.332;6.610;2023-02-11T00:09:00;103312.38;;;10.05;65.79
4705;BME280;2366;51.332;6.610;2023-02-11T00:11:27;103322.78;;;10.17;65.12
4705;BME280;2366;51.332;6.610;2023-02-11T00:13:59;103316.50;;;10.21;65.10
4705;BME280;2366;51.332;6.610;2023-02-11T00:16:26;103309.34;;;10.25;64.59
4705;BME280;2366;51.332;6.610;2023-02-11T00:18:52;103310.13;;;10.33;64.43
4705;BME280;2366;51.332;6.610;2023-02-11T00:21:23;103306.53;;;10.36;64.49
4705;BME280;2366;51.332;6.610;2023-02-11T00:23:49;103304.78;;;10.35;64.34
4705;BME280;2366;51.332;6.610;2023-02-11T00:28:44;103290.63;;;10.36;64.17
4705;BME280;2366;51.332;6.610;2023-02-11T00:31:11;103290.59;;;10.37;64.23
4705;BME280;2366;51.332;6.610;2023-02-11T00:33:36;103283.41;;;10.42;64.05
4705;BME280;2366;51.332;6.610;2023-02-11T00:36:07;103287.72;;;10.50;64.04
4705;BME280;2366;51.332;6.610;2023-02-11T00:38:33;103297.28;;;10.55;63.65
4705;BME280;2366;51.332;6.610;2023-02-11T00:40:58;103306.94;;;10.59;63.54
4705;BME280;2366;51.332;6.610;2023-02-11T00:43:24;103304.28;;;10.59;63.30
4705;BME280;2366;51.332;6.610;2023-02-11T00:45:49;103310.47;;;10.60;63.30
4705;BME280;2366;51.332;6.610;2023-02-11T00:48:15;103311.41;;;10.57;62.90
4705;BME280;2366;51.332;6.610;2023-02-11T00:50:40;103307.13;;;10.50;63.26
4705;BME280;2366;51.332;6.610;2023-02-11T00:53:05;103305.53;;;10.41;63.46
4705;BME280;2366;51.332;6.610;2023-02-11T00:55:31;103300.28;;;10.38;63.61
4705;BME280;2366;51.332;6.610;2023-02-11T00:57:57;103299.50;;;10.35;63.65
4705;BME280;2366;51.332;6.610;2023-02-11T01:00:24;103287.97;;;10.34;63.78
4705;BME280;2366;51.332;6.610;2023-02-11T01:02:49;103280.00;;;10.36;63.63
4705;BME280;2366;51.332;6.610;2023-02-11T01:05:15;103277.34;;;10.36;63.85
4705;BME280;2366;51.332;6.610;2023-02-11T01:07:40;103280.97;;;10.32;63.77
4705;BME280;2366;51.332;6.610;2023-02-11T01:10:06;103282.56;;;10.40;63.87
4705;BME280;2366;51.332;6.610;2023-02-11T01:12:31;103292.19;;;10.46;63.65
4705;BME280;2366;51.332;6.610;2023-02-11T01:14:57;103296.63;;;10.45;63.49
4705;BME280;2366;51.332;6.610;2023-02-11T01:17:22;103304.41;;;10.53;64.00
4705;BME280;2366;51.332;6.610;2023-02-11T01:19:47;103306.97;;;10.58;63.57
4705;BME280;2366;51.332;6.610;2023-02-11T01:22:13;103303.63;;;10.50;63.64
4705;BME280;2366;51.332;6.610;2023-02-11T01:24:38;103306.09;;;10.57;63.42
4705;BME280;2366;51.332;6.610;2023-02-11T01:27:04;103305.16;;;10.60;63.34
4705;BME280;2366;51.332;6.610;2023-02-11T01:29:29;103293.75;;;10.56;63.31
4705;BME280;2366;51.332;6.610;2023-02-11T01:31:56;103290.34;;;10.50;63.59
4705;BME280;2366;51.332;6.610;2023-02-11T01:34:21;103299.19;;;10.50;63.57
4705;BME280;2366;51.332;6.610;2023-02-11T01:36:47;103297.38;;;10.52;63.52
4705;BME280;2366;51.332;6.610;2023-02-11T01:39:12;103299.09;;;10.53;63.56
4705;BME280;2366;51.332;6.610;2023-02-11T01:41:38;103308.72;;;10.59;63.20
4705;BME280;2366;51.332;6.610;2023-02-11T01:44:23;103313.97;;;10.62;62.95
4705;BME280;2366;51.332;6.610;2023-02-11T01:46:48;103319.34;;;10.59;63.01
4705;BME280;2366;51.332;6.610;2023-02-11T01:49:20;103313.31;;;10.51;63.06
4705;BME280;2366;51.332;6.610;2023-02-11T01:51:52;103311.53;;;10.51;63.44
4705;BME280;2366;51.332;6.610;2023-02-11T01:54:21;103307.06;;;10.53;63.25
4705;BME280;2366;51.332;6.610;2023-02-11T01:57:07;103295.50;;;10.57;63.26
4705;BME280;2366;51.332;6.610;2023-02-11T02:02:37;103290.31;;;10.51;63.36
4705;BME280;2366;51.332;6.610;2023-02-11T02:10:45;103274.59;;;10.42;63.79
4705;BME280;2366;51.332;6.610;2023-02-11T02:13:12;103264.84;;;10.41;63.89
4705;BME280;2366;51.332;6.610;2023-02-11T02:15:47;103275.56;;;10.36;63.74
4705;BME280;2366;51.332;6.610;2023-02-11T02:29:28;103262.47;;;10.30;63.95
4705;BME280;2366;51.332;6.610;2023-02-11T02:34:51;103265.13;;;10.27;63.90
4705;BME280;2366;51.332;6.610;2023-02-11T02:37:29;103268.63;;;10.31;63.78
4705;BME280;2366;51.332;6.610;2023-02-11T02:39:56;103264.22;;;10.28;64.55
4705;BME280;2366;51.332;6.610;2023-02-11T02:42:23;103260.69;;;10.27;64.36
4705;BME280;2366;51.332;6.610;2023-02-11T02:44:50;103266.91;;;10.26;64.58
4705;BME280;2366;51.332;6.610;2023-02-11T02:47:17;103259.84;;;10.25;63.27
4705;BME280;2366;51.332;6.610;2023-02-11T02:49:42;103258.19;;;10.20;64.69
4705;BME280;2366;51.332;6.610;2023-02-11T02:52:30;103263.41;;;10.24;64.49
4705;BME280;2366;51.332;6.610;2023-02-11T02:55:29;103261.56;;;10.28;64.12
4705;BME280;2366;51.332;6.610;2023-02-11T02:58:24;103262.47;;;10.25;64.19
4705;BME280;2366;51.332;6.610;2023-02-11T03:01:07;103271.38;;;10.24;64.27
4705;BME280;2366;51.332;6.610;2023-02-11T03:04:02;103266.06;;;10.24;64.15
4705;BME280;2366;51.332;6.610;2023-02-11T03:09:08;103247.63;;;10.18;63.99
4705;BME280;2366;51.332;6.610;2023-02-11T03:11:38;103249.31;;;10.21;64.62
4705;BME280;2366;51.332;6.610;2023-02-11T03:14:07;103235.28;;;10.17;64.66
4705;BME280;2366;51.332;6.610;2023-02-11T03:16:35;103229.88;;;10.22;64.27
4705;BME280;2366;51.332;6.610;2023-02-11T03:19:10;103226.41;;;10.17;64.75
4705;BME280;2366;51.332;6.610;2023-02-11T03:21:39;103237.09;;;10.15;64.76
4705;BME280;2366;51.332;6.610;2023-02-11T03:24:18;103237.00;;;10.18;64.68
4705;BME280;2366;51.332;6.610;2023-02-11T03:26:48;103230.00;;;10.16;64.88
4705;BME280;2366;51.332;6.610;2023-02-11T03:34:32;103229.06;;;10.18;64.97
4705;BME280;2366;51.332;6.610;2023-02-11T03:37:29;103227.28;;;10.19;64.84
4705;BME280;2366;51.332;6.610;2023-02-11T03:40:01;103227.16;;;10.25;64.69
4705;BME280;2366;51.332;6.610;2023-02-11T03:42:32;103229.75;;;10.28;64.80
4705;BME280;2366;51.332;6.610;2023-02-11T03:45:06;103238.63;;;10.25;64.77
4705;BME280;2366;51.332;6.610;2023-02-11T03:47:34;103237.97;;;10.14;64.93
4705;BME280;2366;51.332;6.610;2023-02-11T03:50:04;103229.88;;;10.22;65.04
4705;BME280;2366;51.332;6.610;2023-02-11T03:52:31;103234.25;;;10.24;65.14
4705;BME280;2366;51.332;6.610;2023-02-11T03:54:59;103231.50;;;10.31;64.19
4705;BME280;2366;51.332;6.610;2023-02-11T03:57:28;103236.91;;;10.23;64.79
4705;BME280;2366;51.332;6.610;2023-02-11T03:59:56;103232.47;;;10.23;64.84
4705;BME280;2366;51.332;6.610;2023-02-11T04:02:24;103226.25;;;10.26;64.69
4705;BME280;2366;51.332;6.610;2023-02-11T04:04:51;103221.88;;;10.23;64.77
4705;BME280;2366;51.332;6.610;2023-02-11T04:07:16;103230.66;;;10.25;64.92
4705;BME280;2366;51.332;6.610;2023-02-11T04:09:42;103238.59;;;10.28;64.65
4705;BME280;2366;51.332;6.610;2023-02-11T04:12:07;103232.38;;;10.30;64.75
4705;BME280;2366;51.332;6.610;2023-02-11T04:14:33;103222.75;;;10.24;64.84
4705;BME280;2366;51.332;6.610;2023-02-11T04:16:58;103216.50;;;10.28;64.88
4705;BME280;2366;51.332;6.610;2023-02-11T04:19:24;103211.31;;;10.22;64.95
4705;BME280;2366;51.332;6.610;2023-02-11T04:21:49;103210.38;;;10.24;65.33
4705;BME280;2366;51.332;6.610;2023-02-11T04:24:14;103204.22;;;10.22;65.31
4705;BME280;2366;51.332;6.610;2023-02-11T04:26:40;103211.25;;;10.23;65.37
4705;BME280;2366;51.332;6.610;2023-02-11T04:29:05;103212.19;;;10.22;65.55
4705;BME280;2366;51.332;6.610;2023-02-11T04:31:31;103214.00;;;10.19;65.68
4705;BME280;2366;51.332;6.610;2023-02-11T04:33:56;103218.44;;;10.18;65.99
4705;BME280;2366;51.332;6.610;2023-02-11T04:36:21;103227.31;;;10.17;65.97
4705;BME280;2366;51.332;6.610;2023-02-11T04:38:47;103229.16;;;10.12;66.37
4705;BME280;2366;51.332;6.610;2023-02-11T04:41:12;103238.97;;;10.08;66.46
4705;BME280;2366;51.332;6.610;2023-02-11T04:43:39;103238.97;;;10.08;66.46
4705;BME280;2366;51.332;6.610;2023-02-11T04:46:04;103239.03;;;10.04;66.94
4705;BME280;2366;51.332;6.610;2023-02-11T04:48:29;103245.19;;;10.06;66.98
4705;BME280;2366;51.332;6.610;2023-02-11T04:50:55;103240.81;;;10.03;67.04
4705;BME280;2366;51.332;6.610;2023-02-11T04:53:20;103249.59;;;10.08;67.25
4705;BME280;2366;51.332;6.610;2023-02-11T04:55:49;103253.00;;;10.14;67.34
4705;BME280;2366;51.332;6.610;2023-02-11T04:58:15;103232.69;;;10.13;67.39
4705;BME280;2366;51.332;6.610;2023-02-11T05:00:40;103233.59;;;10.13;67.53
4705;BME280;2366;51.332;6.610;2023-02-11T05:03:06;103233.63;;;10.10;67.50
4705;BME280;2366;51.332;6.610;2023-02-11T05:05:31;103238.09;;;10.08;67.86
4705;BME280;2366;51.332;6.610;2023-02-11T05:07:56;103229.25;;;10.07;67.77
4705;BME280;2366;51.332;6.610;2023-02-11T05:10:22;103233.72;;;10.05;68.07
4705;BME280;2366;51.332;6.610;2023-02-11T05:12:48;103226.63;;;10.07;68.18
4705;BME280;2366;51.332;6.610;2023-02-11T05:15:14;103237.28;;;10.04;68.39
4705;BME280;2366;51.332;6.610;2023-02-11T05:17:39;103237.41;;;9.97;68.12
4705;BME280;2366;51.332;6.610;2023-02-11T05:20:05;103230.41;;;9.94;69.05
4705;BME280;2366;51.332;6.610;2023-02-11T05:22:30;103230.38;;;9.96;69.19
4705;BME280;2366;51.332;6.610;2023-02-11T05:24:56;103228.63;;;9.95;69.46
4705;BME280;2366;51.332;6.610;2023-02-11T05:27:21;103220.84;;;9.87;69.38
4705;BME280;2366;51.332;6.610;2023-02-11T05:29:46;103219.81;;;9.93;69.45
4705;BME280;2366;51.332;6.610;2023-02-11T05:32:12;103231.31;;;9.93;69.85
4705;BME280;2366;51.332;6.610;2023-02-11T05:34:37;103226.81;;;9.98;69.41
4705;BME280;2366;51.332;6.610;2023-02-11T05:37:03;103229.34;;;10.03;69.67
4705;BME280;2366;51.332;6.610;2023-02-11T05:39:28;103220.53;;;10.02;69.66
4705;BME280;2366;51.332;6.610;2023-02-11T05:41:53;103217.91;;;10.01;69.66
4705;BME280;2366;51.332;6.610;2023-02-11T05:44:19;103213.44;;;10.03;69.68
4705;BME280;2366;51.332;6.610;2023-02-11T05:46:44;103208.13;;;10.04;69.42
4705;BME280;2366;51.332;6.610;2023-02-11T05:49:09;103212.41;;;10.10;69.49
4705;BME280;2366;51.332;6.610;2023-02-11T05:51:35;103209.88;;;10.04;69.49
4705;BME280;2366;51.332;6.610;2023-02-11T05:54:00;103206.34;;;10.05;69.56
4705;BME280;2366;51.332;6.610;2023-02-11T05:56:25;103204.63;;;10.02;69.58
4705;BME280;2366;51.332;6.610;2023-02-11T05:58:51;103202.78;;;10.06;69.35
4705;BME280;2366;51.332;6.610;2023-02-11T06:01:17;103215.06;;;10.10;69.26
4705;BME280;2366;51.332;6.610;2023-02-11T06:03:42;103216.88;;;10.08;69.26
4705;BME280;2366;51.332;6.610;2023-02-11T06:06:10;103224.78;;;10.11;69.30
4705;BME280;2366;51.332;6.610;2023-02-11T06:08:35;103218.63;;;10.09;68.99
4705;BME280;2366;51.332;6.610;2023-02-11T06:11:01;103218.53;;;10.15;68.77
4705;BME280;2366;51.332;6.610;2023-02-11T06:13:26;103216.75;;;10.14;68.89
4705;BME280;2366;51.332;6.610;2023-02-11T06:15:56;103207.09;;;10.12;68.75
4705;BME280;2366;51.332;6.610;2023-02-11T06:18:22;103213.22;;;10.15;68.71
4705;BME280;2366;51.332;6.610;2023-02-11T06:20:47;103220.25;;;10.16;68.71
4705;BME280;2366;51.332;6.610;2023-02-11T06:23:12;103222.88;;;10.18;68.65
4705;BME280;2366;51.332;6.610;2023-02-11T06:25:38;103221.13;;;10.17;68.88
4705;BME280;2366;51.332;6.610;2023-02-11T06:28:03;103211.34;;;10.20;68.44
4705;BME280;2366;51.332;6.610;2023-02-11T06:30:29;103225.47;;;10.21;68.46
4705;BME280;2366;51.332;6.610;2023-02-11T06:32:54;103228.09;;;10.22;68.43
4705;BME280;2366;51.332;6.610;2023-02-11T06:35:19;103227.16;;;10.23;68.20
4705;BME280;2366;51.332;6.610;2023-02-11T06:37:45;103228.94;;;10.24;68.33
4705;BME280;2366;51.332;6.610;2023-02-11T06:40:11;103225.38;;;10.25;67.48
4705;BME280;2366;51.332;6.610;2023-02-11T06:42:37;103236.13;;;10.19;67.95
4705;BME280;2366;51.332;6.610;2023-02-11T06:45:03;103237.09;;;10.15;68.17
4705;BME280;2366;51.332;6.610;2023-02-11T06:47:30;103225.50;;;10.19;68.13
4705;BME280;2366;51.332;6.610;2023-02-11T06:49:55;103226.28;;;10.24;68.49
4705;BME280;2366;51.332;6.610;2023-02-11T06:52:20;103228.84;;;10.27;68.35
4705;BME280;2366;51.332;6.610;2023-02-11T06:54:46;103233.28;;;10.27;68.30
4705;BME280;2366;51.332;6.610;2023-02-11T06:57:11;103232.44;;;10.26;68.22
4705;BME280;2366;51.332;6.610;2023-02-11T06:59:36;103230.63;;;10.28;68.33
4705;BME280;2366;51.332;6.610;2023-02-11T07:02:02;103234.06;;;10.35;68.34
4705;BME280;2366;51.332;6.610;2023-02-11T07:04:27;103225.25;;;10.33;68.11
4705;BME280;2366;51.332;6.610;2023-02-11T07:06:52;103223.56;;;10.29;68.06
4705;BME280;2366;51.332;6.610;2023-02-11T07:09:18;103241.19;;;10.32;68.14
4705;BME280;2366;51.332;6.610;2023-02-11T07:11:43;103243.00;;;10.30;68.23
4705;BME280;2366;51.332;6.610;2023-02-11T07:14:09;103240.38;;;10.28;68.44
4705;BME280;2366;51.332;6.610;2023-02-11T07:16:35;103236.75;;;10.32;68.39
4705;BME280;2366;51.332;6.610;2023-02-11T07:19:01;103233.97;;;10.38;68.45
4705;BME280;2366;51.332;6.610;2023-02-11T07:21:26;103240.84;;;10.48;68.10
4705;BME280;2366;51.332;6.610;2023-02-11T07:23:52;103244.34;;;10.51;67.98
4705;BME280;2366;51.332;6.610;2023-02-11T07:26:20;103242.53;;;10.53;67.88
4705;BME280;2366;51.332;6.610;2023-02-11T07:28:50;103252.19;;;10.57;68.00
4705;BME280;2366;51.332;6.610;2023-02-11T07:31:18;103254.09;;;10.48;67.92
4705;BME280;2366;51.332;6.610;2023-02-11T07:33:44;103266.38;;;10.54;67.41
4705;BME280;2366;51.332;6.610;2023-02-11T07:36:13;103257.63;;;10.49;67.98
4705;BME280;2366;51.332;6.610;2023-02-11T07:38:39;103266.38;;;10.54;68.14
4705;BME280;2366;51.332;6.610;2023-02-11T07:41:06;103269.72;;;10.62;67.84
4705;BME280;2366;51.332;6.610;2023-02-11T07:43:34;103273.22;;;10.64;67.68
4705;BME280;2366;51.332;6.610;2023-02-11T07:46:09;103275.81;;;10.67;67.52
4705;BME280;2366;51.332;6.610;2023-02-11T07:48:35;103273.13;;;10.69;67.15
4705;BME280;2366;51.332;6.610;2023-02-11T07:51:07;103280.28;;;10.65;67.62
4705;BME280;2366;51.332;6.610;2023-02-11T07:53:33;103279.31;;;10.69;67.75
4705;BME280;2366;51.332;6.610;2023-02-11T07:55:58;103279.31;;;10.69;67.50
4705;BME280;2366;51.332;6.610;2023-02-11T07:58:24;103285.50;;;10.70;67.29
4705;BME280;2366;51.332;6.610;2023-02-11T08:00:49;103277.53;;;10.70;67.56
4705;BME280;2366;51.332;6.610;2023-02-11T08:03:15;103281.00;;;10.74;67.27
4705;BME280;2366;51.332;6.610;2023-02-11T08:05:40;103280.09;;;10.75;67.43
4705;BME280;2366;51.332;6.610;2023-02-11T08:08:06;103273.09;;;10.71;67.46
4705;BME280;2366;51.332;6.610;2023-02-11T08:10:31;103278.34;;;10.74;67.51
4705;BME280;2366;51.332;6.610;2023-02-11T08:12:57;103277.22;;;10.84;67.40
4705;BME280;2366;51.332;6.610;2023-02-11T08:15:22;103286.03;;;10.86;67.53
4705;BME280;2366;51.332;6.610;2023-02-11T08:17:47;103282.41;;;10.90;66.89
4705;BME280;2366;51.332;6.610;2023-02-11T08:20:13;103283.25;;;10.92;67.37
4705;BME280;2366;51.332;6.610;2023-02-11T08:22:38;103287.66;;;10.93;67.14
4705;BME280;2366;51.332;6.610;2023-02-11T08:25:04;103276.94;;;10.98;67.10
4705;BME280;2366;51.332;6.610;2023-02-11T08:27:29;103289.25;;;11.00;66.87
4705;BME280;2366;51.332;6.610;2023-02-11T08:29:55;103291.16;;;10.95;67.17
4705;BME280;2366;51.332;6.610;2023-02-11T08:32:20;103294.47;;;11.05;66.99
4705;BME280;2366;51.332;6.610;2023-02-11T08:34:50;103294.44;;;11.06;67.26
4705;BME280;2366;51.332;6.610;2023-02-11T08:37:16;103300.53;;;11.10;66.87
4705;BME280;2366;51.332;6.610;2023-02-11T08:39:41;103302.22;;;11.14;66.85
4705;BME280;2366;51.332;6.610;2023-02-11T08:42:07;103303.00;;;11.19;66.77
4705;BME280;2366;51.332;6.610;2023-02-11T08:44:32;103301.13;;;11.23;66.41
4705;BME280;2366;51.332;6.610;2023-02-11T08:46:57;103294.00;;;11.25;66.54
4705;BME280;2366;51.332;6.610;2023-02-11T08:49:23;103306.50;;;11.20;66.24
4705;BME280;2366;51.332;6.610;2023-02-11T08:51:48;103301.97;;;11.25;66.60
4705;BME280;2366;51.332;6.610;2023-02-11T08:54:14;103303.59;;;11.30;66.49
4705;BME280;2366;51.332;6.610;2023-02-11T08:56:40;103311.56;;;11.32;66.52
4705;BME280;2366;51.332;6.610;2023-02-11T08:59:06;103308.69;;;11.40;66.28
4705;BME280;2366;51.332;6.610;2023-02-11T09:01:32;103304.97;;;11.47;66.07
4705;BME280;2366;51.332;6.610;2023-02-11T09:03:58;103306.47;;;11.59;66.14
4705;BME280;2366;51.332;6.610;2023-02-11T09:06:24;103308.84;;;11.71;65.64
4705;BME280;2366;51.332;6.610;2023-02-11T09:08:52;103317.59;;;11.73;65.41
4705;BME280;2366;51.332;6.610;2023-02-11T09:11:20;103315.78;;;11.75;65.32
4705;BME280;2366;51.332;6.610;2023-02-11T09:13:46;103321.88;;;11.80;65.30
4705;BME280;2366;51.332;6.610;2023-02-11T09:16:23;103328.09;;;11.79;64.67
4705;BME280;2366;51.332;6.610;2023-02-11T09:18:49;103330.81;;;11.78;65.22
4705;BME280;2366;51.332;6.610;2023-02-11T09:21:15;103334.34;;;11.78;64.95
4705;BME280;2366;51.332;6.610;2023-02-11T09:23:41;103339.63;;;11.80;64.61
4705;BME280;2366;51.332;6.610;2023-02-11T09:26:19;103342.22;;;11.81;64.82
4705;BME280;2366;51.332;6.610;2023-02-11T09:28:46;103346.59;;;11.84;64.54
4705;BME280;2366;51.332;6.610;2023-02-11T09:31:14;103343.75;;;11.93;65.14
4705;BME280;2366;51.332;6.610;2023-02-11T09:33:41;103349.81;;;11.98;64.86
4705;BME280;2366;51.332;6.610;2023-02-11T09:36:13;103350.63;;;12.02;64.57
4705;BME280;2366;51.332;6.610;2023-02-11T09:38:39;103350.41;;;12.09;64.32
4705;BME280;2366;51.332;6.610;2023-02-11T09:41:04;103343.22;;;12.13;64.62
4705;BME280;2366;51.332;6.610;2023-02-11T09:43:46;103335.22;;;12.15;64.06
4705;BME280;2366;51.332;6.610;2023-02-11T09:46:14;103340.41;;;12.19;64.06
4705;BME280;2366;51.332;6.610;2023-02-11T09:48:42;103345.59;;;12.24;64.02
4705;BME280;2366;51.332;6.610;2023-02-11T09:51:19;103348.44;;;12.16;63.71
4705;BME280;2366;51.332;6.610;2023-02-11T09:53:50;103355.53;;;12.17;64.04
4705;BME280;2366;51.332;6.610;2023-02-11T09:56:20;103354.59;;;12.18;63.49
4705;BME280;2366;51.332;6.610;2023-02-11T09:58:45;103353.75;;;12.16;63.33
4705;BME280;2366;51.332;6.610;2023-02-11T10:01:34;103368.28;;;12.04;63.97
4705;BME280;2366;51.332;6.610;2023-02-11T10:06:44;103377.91;;;12.08;63.95
4705;BME280;2366;51.332;6.610;2023-02-11T10:20:22;103403.47;;;12.14;64.11
4705;BME280;2366;51.332;6.610;2023-02-11T10:22:53;103392.81;;;12.14;64.25
4705;BME280;2366;51.332;6.610;2023-02-11T10:25:32;103390.00;;;12.20;64.22
4705;BME280;2366;51.332;6.610;2023-02-11T10:28:00;103390.81;;;12.24;63.95
4705;BME280;2366;51.332;6.610;2023-02-11T10:30:38;103388.22;;;12.21;63.95
4705;BME280;2366;51.332;6.610;2023-02-11T10:35:45;103381.63;;;12.36;63.95
4705;BME280;2366;51.332;6.610;2023-02-11T10:38:10;103387.75;;;12.39;63.79
4705;BME280;2366;51.332;6.610;2023-02-11T10:40:36;103387.78;;;12.38;64.04
4705;BME280;2366;51.332;6.610;2023-02-11T10:43:05;103396.75;;;12.33;63.91
4705;BME280;2366;51.332;6.610;2023-02-11T10:45:37;103391.25;;;12.41;63.78
4705;BME280;2366;51.332;6.610;2023-02-11T10:48:04;103388.34;;;12.49;63.75
4705;BME280;2366;51.332;6.610;2023-02-11T10:50:33;103384.69;;;12.53;63.59
4705;BME280;2366;51.332;6.610;2023-02-11T10:53:31;103386.94;;;12.68;63.40
4705;BME280;2366;51.332;6.610;2023-02-11T10:55:58;103387.75;;;12.70;63.52
4705;BME280;2366;51.332;6.610;2023-02-11T10:58:27;103396.56;;;12.72;63.05
4705;BME280;2366;51.332;6.610;2023-02-11T11:00:54;103379.59;;;12.77;62.69
4705;BME280;2366;51.332;6.610;2023-02-11T11:03:23;103387.72;;;12.72;63.07
4705;BME280;2366;51.332;6.610;2023-02-11T11:08:17;103390.38;;;12.72;63.20
4705;BME280;2366;51.332;6.610;2023-02-11T11:10:45;103397.41;;;12.74;62.79
4705;BME280;2366;51.332;6.610;2023-02-11T11:13:28;103392.84;;;12.80;63.11
4705;BME280;2366;51.332;6.610;2023-02-11T11:18:39;103392.94;;;12.75;63.18
4705;BME280;2366;51.332;6.610;2023-02-11T11:21:18;103398.41;;;12.70;62.70
4705;BME280;2366;51.332;6.610;2023-02-11T11:23:50;103408.06;;;12.74;63.09
4705;BME280;2366;51.332;6.610;2023-02-11T11:26:17;103407.03;;;12.80;62.80
4705;BME280;2366;51.332;6.610;2023-02-11T11:31:27;103407.16;;;12.76;62.98
4705;BME280;2366;51.332;6.610;2023-02-11T11:33:55;103398.59;;;12.64;62.90
4705;BME280;2366;51.332;6.610;2023-02-11T11:36:29;103400.34;;;12.65;63.52
4705;BME280;2366;51.332;6.610;2023-02-11T11:38:57;103395.59;;;12.75;63.44
4705;BME280;2366;51.332;6.610;2023-02-11T11:41:30;103399.84;;;12.84;63.05
4705;BME280;2366;51.332;6.610;2023-02-11T11:46:35;103398.91;;;12.85;63.00
4705;BME280;2366;51.332;6.610;2023-02-11T11:49:26;103388.72;;;12.99;62.73
4705;BME280;2366;51.332;6.610;2023-02-11T11:52:14;103384.03;;;13.07;62.67
4705;BME280;2366;51.332;6.610;2023-02-11T11:54:46;103391.00;;;13.11;62.46
4705;BME280;2366;51.332;6.610;2023-02-11T11:57:17;103386.56;;;13.12;61.83
4705;BME280;2366;51.332;6.610;2023-02-11T11:59:46;103383.16;;;13.07;61.80
4705;BME280;2366;51.332;6.610;2023-02-11T12:02:45;103379.97;;;12.94;62.33
4705;BME280;2366;51.332;6.610;2023-02-11T12:05:31;103380.94;;;12.91;63.20
4705;BME280;2366;51.332;6.610;2023-02-11T12:10:56;103381.38;;;13.07;62.68
4705;BME280;2366;51.332;6.610;2023-02-11T12:25:27;103381.19;;;13.43;62.23
4705;BME280;2366;51.332;6.610;2023-02-11T12:28:02;103381.72;;;13.54;61.93
4705;BME280;2366;51.332;6.610;2023-02-11T12:31:16;103378.72;;;13.65;60.99
4705;BME280;2366;51.332;6.610;2023-02-11T12:50:49;103379.22;;;13.76;60.95
4705;BME280;2366;51.332;6.610;2023-02-11T12:56:23;103363.38;;;13.98;60.63
4705;BME280;2366;51.332;6.610;2023-02-11T12:58:55;103363.94;;;14.08;60.50
4705;BME280;2366;51.332;6.610;2023-02-11T13:01:31;103355.25;;;14.03;59.54
4705;BME280;2366;51.332;6.610;2023-02-11T13:04:09;103358.72;;;13.79;60.38
4705;BME280;2366;51.332;6.610;2023-02-11T13:06:44;103349.84;;;13.78;61.05
4705;BME280;2366;51.332;6.610;2023-02-11T13:09:19;103349.63;;;13.86;60.58
4705;BME280;2366;51.332;6.610;2023-02-11T13:11:55;103352.13;;;13.90;60.12
4705;BME280;2366;51.332;6.610;2023-02-11T13:14:28;103351.13;;;13.93;60.71
4705;BME280;2366;51.332;6.610;2023-02-11T13:16:56;103352.78;;;13.97;60.05
4705;BME280;2366;51.332;6.610;2023-02-11T13:19:43;103353.44;;;14.04;60.30
4705;BME280;2366;51.332;6.610;2023-02-11T13:22:23;103345.75;;;13.94;59.49
4705;BME280;2366;51.332;6.610;2023-02-11T13:25:12;103355.94;;;14.08;60.63
4705;BME280;2366;51.332;6.610;2023-02-11T13:27:49;103352.09;;;14.17;60.37
4705;BME280;2366;51.332;6.610;2023-02-11T13:30:48;103350.72;;;14.05;59.82
4705;BME280;2366;51.332;6.610;2023-02-11T13:33:47;103339.06;;;14.08;59.84
4705;BME280;2366;51.332;6.610;2023-02-11T13:36:23;103343.25;;;14.15;59.98
4705;BME280;2366;51.332;6.610;2023-02-11T13:38:55;103347.56;;;14.19;59.11
4705;BME280;2366;51.332;6.610;2023-02-11T13:46:24;103363.75;;;14.14;59.71
4705;BME280;2366;51.332;6.610;2023-02-11T13:48:52;103363.78;;;14.13;60.15
4705;BME280;2366;51.332;6.610;2023-02-11T13:51:34;103364.72;;;14.12;60.14
4705;BME280;2366;51.332;6.610;2023-02-11T13:54:01;103371.66;;;14.16;60.34
4705;BME280;2366;51.332;6.610;2023-02-11T13:56:31;103372.59;;;14.15;60.00
4705;BME280;2366;51.332;6.610;2023-02-11T13:59:02;103372.97;;;14.04;59.63
4705;BME280;2366;51.332;6.610;2023-02-11T14:04:31;103370.97;;;14.11;60.36
4705;BME280;2366;51.332;6.610;2023-02-11T14:07:29;103363.91;;;14.10;60.08
4705;BME280;2366;51.332;6.610;2023-02-11T14:13:26;103360.34;;;14.09;60.63
4705;BME280;2366;51.332;6.610;2023-02-11T14:21:22;103355.88;;;14.35;59.82
4705;BME280;2366;51.332;6.610;2023-02-11T14:23:50;103350.97;;;14.48;59.89
4705;BME280;2366;51.332;6.610;2023-02-11T14:28:46;103348.09;;;14.54;59.42
4705;BME280;2366;51.332;6.610;2023-02-11T14:31:17;103348.22;;;14.51;59.46
4705;BME280;2366;51.332;6.610;2023-02-11T14:36:52;103350.13;;;14.47;59.17
4705;BME280;2366;51.332;6.610;2023-02-11T14:42:19;103348.91;;;14.57;59.10
4705;BME280;2366;51.332;6.610;2023-02-11T14:44:50;103355.28;;;14.52;59.01
4705;BME280;2366;51.332;6.610;2023-02-11T14:47:20;103354.22;;;14.57;59.37
4705;BME280;2366;51.332;6.610;2023-02-11T14:49:47;103358.59;;;14.60;59.07
4705;BME280;2366;51.332;6.610;2023-02-11T14:52:33;103361.44;;;14.55;59.07
4705;BME280;2366;51.332;6.610;2023-02-11T14:57:33;103362.34;;;14.53;59.33
4705;BME280;2366;51.332;6.610;2023-02-11T15:00:02;103364.28;;;14.49;59.62
4705;BME280;2366;51.332;6.610;2023-02-11T15:02:33;103363.47;;;14.47;59.64
4705;BME280;2366;51.332;6.610;2023-02-11T15:05:21;103358.09;;;14.49;59.52
4705;BME280;2366;51.332;6.610;2023-02-11T15:08:13;103362.81;;;14.41;59.64
4705;BME280;2366;51.332;6.610;2023-02-11T15:10:43;103360.97;;;14.43;59.37
4705;BME280;2366;51.332;6.610;2023-02-11T15:13:17;103361.19;;;14.36;59.41
4705;BME280;2366;51.332;6.610;2023-02-11T15:15:43;103357.69;;;14.34;59.74
4705;BME280;2366;51.332;6.610;2023-02-11T15:18:19;103364.09;;;14.29;59.70
4705;BME280;2366;51.332;6.610;2023-02-11T15:20:47;103366.94;;;14.24;60.09
4705;BME280;2366;51.332;6.610;2023-02-11T15:23:26;103370.06;;;14.12;60.09
4705;BME280;2366;51.332;6.610;2023-02-11T15:25:53;103380.88;;;14.07;60.64
4705;BME280;2366;51.332;6.610;2023-02-11T15:28:25;103381.84;;;14.05;60.54